Main page
METAR-TAF:

METAR-TAF

Airports :

Siegerland Airport

Siegen, Germany

latitude: 50-42-28N, longitude: 008-04-59E, elevation: 602 m

Current weather observation

The report was made 36 minutes ago, at 16:20 UTC
Wind 12 kt from the East/Southeast
Temperature 10°C
Humidity 100%
Pressure 1013 hPa
Visibility: 0100 m
fog

METAR: EDGS 231620Z 12012KT 0100 R13/0350N FG VV/// 10/10 Q1013

Time: 18:56 (16:56 UTC)

Forecast

The report was made 2 hours and 56 minutes ago, at 14:00 UTC
Forecast valid from 23 at 15 UTC to 23 at 24 UTC
Wind 14 kt from the East/Southeast
Visibility: 0100 m
Overcast at a height lower than 100 ft
fog
Temporary
from 23 at 15 UTC to 23 at 24 UTC
Visibility: 0700 m
Overcast at a height of 400 ft
fog

TAF: EDGS 231400Z 2315/2324 12014KT 0100 FG OVC000 TEMPO 2315/2324 0700 FG OVC004

Weather observations and forecasts of more than 4000 airports (METAR and TAF reports).

The available stations are represented by yellow and red dots on the map.

Hover mouse over dot to see the name of the station.

Then click to see weather observations and forecasts.

To change the map : click on the green buttons with a black cross to zoom in, on the green button with a dash to zoom out, or on the green arrows for adjacent maps.


METAR-TAF: